createdAt,value
2022-09-28T00:00:46.090Z,395.50
2022-09-28T00:01:46.620Z,395.50
2022-09-28T00:02:46.972Z,403.42
2022-09-28T00:03:47.357Z,403.42
2022-09-28T00:04:47.786Z,395.50
2022-09-28T00:05:48.239Z,403.42
2022-09-28T00:06:48.647Z,387.72
2022-09-28T00:07:49.076Z,387.72
2022-09-28T00:08:49.505Z,403.42
2022-09-28T00:09:49.936Z,395.50
2022-09-28T00:10:50.389Z,395.50
2022-09-28T00:11:50.804Z,387.72
2022-09-28T00:12:51.227Z,395.50
2022-09-28T00:13:51.661Z,395.50
2022-09-28T00:14:52.091Z,395.50
2022-09-28T00:15:52.537Z,403.42
2022-09-28T00:16:53.036Z,395.50
2022-09-28T00:17:53.381Z,403.42
2022-09-28T00:18:53.809Z,403.42
2022-09-28T00:19:54.243Z,411.48
2022-09-28T00:20:54.693Z,403.42
2022-09-28T00:21:55.101Z,403.42
2022-09-28T00:22:55.531Z,403.42
2022-09-28T00:23:55.962Z,395.50
2022-09-28T00:24:56.390Z,395.50
2022-09-28T00:25:56.861Z,403.42
2022-09-28T00:26:57.257Z,411.48
2022-09-28T00:27:57.681Z,403.42
2022-09-28T00:28:58.118Z,403.42
2022-09-28T00:29:58.545Z,395.50
2022-09-28T00:30:58.997Z,403.42
2022-09-28T00:31:59.512Z,387.72
2022-09-28T00:32:59.837Z,403.42
2022-09-28T00:34:00.276Z,403.42
2022-09-28T00:35:00.699Z,411.48
2022-09-28T00:36:01.354Z,403.42
2022-09-28T00:37:01.556Z,403.42
2022-09-28T00:38:01.991Z,403.42
2022-09-28T00:39:02.421Z,395.50
2022-09-28T00:40:02.858Z,403.42
2022-09-28T00:41:03.351Z,387.72
2022-09-28T00:42:03.720Z,403.42
2022-09-28T00:43:04.140Z,403.42
2022-09-28T00:44:04.572Z,403.42
2022-09-28T00:45:05.000Z,403.42
2022-09-28T00:46:05.514Z,395.50
2022-09-28T00:47:05.863Z,395.50
2022-09-28T00:48:06.297Z,403.42
2022-09-28T00:49:06.737Z,403.42
2022-09-28T00:50:07.163Z,403.42
2022-09-28T00:51:07.607Z,403.42
2022-09-28T00:52:08.017Z,395.50
2022-09-28T00:53:08.468Z,403.42
2022-09-28T00:54:08.884Z,403.42
2022-09-28T00:55:09.324Z,403.42
2022-09-28T00:56:09.760Z,395.50
2022-09-28T00:57:10.171Z,403.42
2022-09-28T00:58:10.600Z,403.42
2022-09-28T00:59:11.031Z,395.50
2022-09-28T01:00:11.460Z,387.72
2022-09-28T01:01:12.038Z,387.72
2022-09-28T01:02:12.369Z,395.50
2022-09-28T01:03:12.752Z,395.50
2022-09-28T01:04:13.190Z,395.50
2022-09-28T01:05:13.617Z,387.72
2022-09-28T01:06:14.067Z,387.72
2022-09-28T01:07:14.474Z,387.72
2022-09-28T01:08:14.904Z,387.72
2022-09-28T01:09:15.443Z,403.42
2022-09-28T01:10:15.810Z,395.50
2022-09-28T01:11:16.214Z,395.50
2022-09-28T01:12:16.625Z,403.42
2022-09-28T01:13:17.061Z,395.50
2022-09-28T01:14:17.487Z,387.72
2022-09-28T01:15:17.938Z,395.50
2022-09-28T01:16:18.425Z,395.50
2022-09-28T01:17:18.779Z,403.42
2022-09-28T01:18:19.207Z,403.42
2022-09-28T01:19:19.637Z,395.50
2022-09-28T01:20:20.069Z,395.50
2022-09-28T01:21:20.527Z,387.72
2022-09-28T01:22:20.932Z,387.72
2022-09-28T01:23:21.356Z,395.50
2022-09-28T01:24:21.789Z,395.50
2022-09-28T01:25:22.273Z,395.50
2022-09-28T01:26:22.674Z,395.50
2022-09-28T01:27:23.078Z,380.09
2022-09-28T01:28:23.512Z,387.72
2022-09-28T01:29:23.940Z,395.50
2022-09-28T01:30:24.371Z,403.42
2022-09-28T01:31:24.861Z,403.42
2022-09-28T01:32:25.230Z,395.50
2022-09-28T01:33:25.663Z,395.50
2022-09-28T01:34:26.092Z,403.42
2022-09-28T01:35:26.520Z,395.50
2022-09-28T01:36:26.972Z,403.42
2022-09-28T01:37:27.382Z,403.42
2022-09-28T01:38:27.823Z,387.72
2022-09-28T01:39:28.251Z,403.42
2022-09-28T01:40:28.724Z,403.42
2022-09-28T01:41:29.123Z,403.42
2022-09-28T01:42:29.542Z,387.72
2022-09-28T01:43:29.966Z,395.50
2022-09-28T01:44:30.395Z,395.50
2022-09-28T01:45:30.835Z,395.50
2022-09-28T01:46:31.280Z,403.42
2022-09-28T01:47:31.689Z,387.72
2022-09-28T01:48:32.118Z,403.42
2022-09-28T01:49:32.545Z,395.50
2022-09-28T01:50:32.976Z,395.50
2022-09-28T01:51:33.446Z,395.50
2022-09-28T01:52:33.837Z,395.50
2022-09-28T01:53:34.274Z,403.42
2022-09-28T01:54:34.712Z,403.42
2022-09-28T01:55:35.130Z,403.42
2022-09-28T01:56:35.589Z,403.42
2022-09-28T01:57:35.992Z,403.42
2022-09-28T01:58:36.452Z,395.50
2022-09-28T01:59:36.849Z,403.42
2022-09-28T02:00:37.318Z,395.50
2022-09-28T02:01:37.904Z,387.72
2022-09-28T02:02:38.143Z,395.50
2022-09-28T02:03:38.586Z,387.72
2022-09-28T02:04:39.002Z,411.48
2022-09-28T02:05:39.430Z,395.50
2022-09-28T02:06:39.886Z,403.42
2022-09-28T02:07:40.291Z,395.50
2022-09-28T02:08:40.723Z,387.72
2022-09-28T02:09:41.152Z,387.72
2022-09-28T02:10:41.587Z,387.72
2022-09-28T02:11:42.036Z,395.50
2022-09-28T02:12:42.444Z,395.50
2022-09-28T02:13:42.878Z,395.50
2022-09-28T02:14:43.305Z,403.42
2022-09-28T02:15:43.738Z,395.50
2022-09-28T02:16:44.225Z,395.50
2022-09-28T02:17:44.596Z,403.42
2022-09-28T02:18:45.036Z,395.50
2022-09-28T02:19:45.455Z,395.50
2022-09-28T02:20:45.888Z,411.48
2022-09-28T02:21:46.343Z,403.42
2022-09-28T02:22:46.746Z,403.42
2022-09-28T02:23:47.184Z,403.42
2022-09-28T02:24:47.606Z,403.42
2022-09-28T02:25:48.039Z,395.50
2022-09-28T02:26:48.489Z,411.48
2022-09-28T02:27:48.909Z,411.48
2022-09-28T02:28:49.330Z,403.42
2022-09-28T02:29:49.764Z,403.42
2022-09-28T02:30:50.194Z,411.48
2022-09-28T02:31:50.668Z,403.42
2022-09-28T02:32:51.051Z,403.42
2022-09-28T02:33:51.480Z,411.48
2022-09-28T02:34:51.912Z,403.42
2022-09-28T02:35:52.351Z,411.48
2022-09-28T02:36:52.793Z,411.48
2022-09-28T02:37:53.206Z,403.42
2022-09-28T02:38:53.636Z,411.48
2022-09-28T02:39:54.064Z,387.72
2022-09-28T02:40:54.554Z,395.50
2022-09-28T02:41:54.952Z,411.48
2022-09-28T02:42:55.366Z,403.42
2022-09-28T02:43:55.785Z,387.72
2022-09-28T02:44:56.227Z,403.42
2022-09-28T02:45:56.715Z,403.42
2022-09-28T02:46:57.104Z,395.50
2022-09-28T02:47:57.508Z,395.50
2022-09-28T02:49:17.417Z,411.48
2022-09-28T02:49:58.364Z,395.50
2022-09-28T02:50:58.796Z,403.42
2022-09-28T02:51:59.249Z,387.72
2022-09-28T02:52:59.658Z,403.42
2022-09-28T02:54:00.111Z,411.48
2022-09-28T02:55:00.541Z,395.50
2022-09-28T02:56:00.948Z,403.42
2022-09-28T02:57:01.391Z,395.50
2022-09-28T02:58:01.808Z,395.50
2022-09-28T02:59:02.235Z,395.50
2022-09-28T03:00:02.671Z,395.50
2022-09-28T03:01:03.164Z,387.72
2022-09-28T03:02:03.593Z,403.42
2022-09-28T03:03:03.967Z,403.42
2022-09-28T03:04:04.390Z,403.42
2022-09-28T03:05:04.822Z,387.72
2022-09-28T03:06:05.254Z,403.42
2022-09-28T03:07:05.702Z,403.42
2022-09-28T03:08:06.113Z,395.50
2022-09-28T03:09:06.539Z,411.48
2022-09-28T03:10:06.972Z,395.50
2022-09-28T03:11:07.400Z,403.42
2022-09-28T03:12:07.848Z,395.50
2022-09-28T03:13:08.258Z,411.48
2022-09-28T03:14:08.689Z,403.42
2022-09-28T03:15:09.120Z,411.48
2022-09-28T03:16:09.638Z,395.50
2022-09-28T03:17:09.998Z,403.42
2022-09-28T03:18:10.413Z,411.48
2022-09-28T03:19:10.840Z,395.50
2022-09-28T03:20:11.288Z,403.42
2022-09-28T03:21:11.697Z,395.50
2022-09-28T03:22:12.158Z,387.72
2022-09-28T03:23:24.227Z,395.50
2022-09-28T03:24:12.990Z,395.50
2022-09-28T03:25:13.417Z,403.42
2022-09-28T03:26:13.852Z,395.50
2022-09-28T03:27:14.302Z,395.50
2022-09-28T03:28:14.710Z,403.42
2022-09-28T03:29:15.321Z,411.48
2022-09-28T03:30:15.567Z,403.42
2022-09-28T03:31:16.045Z,411.48
2022-09-28T03:32:16.448Z,403.42
2022-09-28T03:33:16.855Z,403.42
2022-09-28T03:34:17.286Z,395.50
2022-09-28T03:35:17.725Z,411.48
2022-09-28T03:36:18.159Z,411.48
2022-09-28T03:37:18.593Z,403.42
2022-09-28T03:38:19.009Z,387.72
2022-09-28T03:39:19.436Z,387.72
2022-09-28T03:40:19.883Z,403.42
2022-09-28T03:41:20.293Z,403.42
2022-09-28T03:42:20.749Z,395.50
2022-09-28T03:43:21.172Z,395.50
2022-09-28T03:44:21.583Z,387.72
2022-09-28T03:45:22.010Z,395.50
2022-09-28T03:46:22.470Z,387.72
2022-09-28T03:47:22.894Z,387.72
2022-09-28T03:48:25.873Z,387.72
2022-09-28T03:49:23.729Z,403.42
2022-09-28T03:50:24.161Z,387.72
2022-09-28T03:51:24.591Z,395.50
2022-09-28T03:52:25.041Z,395.50
2022-09-28T03:53:25.448Z,395.50
2022-09-28T03:54:25.881Z,395.50
2022-09-28T03:55:26.308Z,395.50
2022-09-28T03:56:26.739Z,395.50
2022-09-28T03:57:27.185Z,387.72
2022-09-28T03:58:27.598Z,395.50
2022-09-28T03:59:28.026Z,395.50
2022-09-28T04:00:28.459Z,387.72
2022-09-28T04:01:28.943Z,395.50
2022-09-28T04:02:29.392Z,395.50
2022-09-28T04:03:29.749Z,403.42
2022-09-28T04:04:30.183Z,403.42
2022-09-28T04:05:30.606Z,387.72
2022-09-28T04:06:31.037Z,395.50
2022-09-28T04:07:31.498Z,380.09
2022-09-28T04:08:31.895Z,387.72
2022-09-28T04:09:32.322Z,387.72
2022-09-28T04:10:32.754Z,380.09
2022-09-28T04:11:42.974Z,395.50
2022-09-28T04:12:33.644Z,395.50
2022-09-28T04:13:34.040Z,395.50
2022-09-28T04:14:34.472Z,380.09
2022-09-28T04:15:34.901Z,387.72
2022-09-28T04:16:35.373Z,387.72
2022-09-28T04:17:39.927Z,395.50
2022-09-28T04:18:36.192Z,387.72
2022-09-28T04:19:36.620Z,380.09
2022-09-28T04:20:37.059Z,387.72
2022-09-28T04:21:37.482Z,395.50
2022-09-28T04:22:37.933Z,380.09
2022-09-28T04:23:38.337Z,380.09
2022-09-28T04:24:38.778Z,395.50
2022-09-28T04:25:39.209Z,387.72
2022-09-28T04:26:39.626Z,387.72
2022-09-28T04:27:40.080Z,395.50
2022-09-28T04:28:40.489Z,372.59
2022-09-28T04:29:40.928Z,387.72
2022-09-28T04:30:41.346Z,395.50
2022-09-28T04:31:41.843Z,380.09
2022-09-28T04:32:42.227Z,387.72
2022-09-28T04:33:42.647Z,387.72
2022-09-28T04:34:44.354Z,387.72
2022-09-28T04:35:43.494Z,387.72
2022-09-28T04:36:43.922Z,387.72
2022-09-28T04:37:44.382Z,380.09
2022-09-28T04:38:53.484Z,395.50
2022-09-28T04:39:48.385Z,387.72
2022-09-28T04:40:45.711Z,387.72
2022-09-28T04:41:46.097Z,403.42
2022-09-28T04:42:46.519Z,387.72
2022-09-28T04:43:46.936Z,403.42
2022-09-28T04:44:47.359Z,380.09
2022-09-28T04:45:47.805Z,387.72
2022-09-28T04:46:48.217Z,387.72
2022-09-28T04:47:48.676Z,380.09
2022-09-28T04:48:49.081Z,380.09
2022-09-28T04:49:49.503Z,387.72
2022-09-28T04:50:49.932Z,387.72
2022-09-28T04:51:50.374Z,380.09
2022-09-28T04:52:50.813Z,380.09
2022-09-28T04:53:51.222Z,380.09
2022-09-28T04:54:51.661Z,395.50
2022-09-28T04:55:52.086Z,395.50
2022-09-28T04:56:52.550Z,387.72
2022-09-28T04:57:52.961Z,395.50
2022-09-28T04:58:53.370Z,395.50
2022-09-28T04:59:53.800Z,403.42
2022-09-28T05:00:54.293Z,395.50
2022-09-28T05:01:54.686Z,387.72
2022-09-28T05:02:55.113Z,395.50
2022-09-28T05:03:55.519Z,395.50
2022-09-28T05:04:55.949Z,387.72
2022-09-28T05:05:56.376Z,387.72
2022-09-28T05:06:56.807Z,395.50
2022-09-28T05:07:57.256Z,387.72
2022-09-28T05:08:57.689Z,387.72
2022-09-28T05:09:58.128Z,403.42
2022-09-28T05:10:58.543Z,395.50
2022-09-28T05:11:58.955Z,403.42
2022-09-28T05:12:59.413Z,403.42
2022-09-28T05:13:59.813Z,395.50
2022-09-28T05:15:00.243Z,403.42
2022-09-28T05:16:04.965Z,387.72
2022-09-28T05:17:01.186Z,403.42
2022-09-28T05:18:01.558Z,403.42
2022-09-28T05:19:01.971Z,395.50
2022-09-28T05:20:02.394Z,387.72
2022-09-28T05:21:02.829Z,395.50
2022-09-28T05:22:03.265Z,395.50
2022-09-28T05:23:03.706Z,403.42
2022-09-28T05:24:04.126Z,403.42
2022-09-28T05:25:04.565Z,403.42
2022-09-28T05:26:04.974Z,395.50
2022-09-28T05:27:05.415Z,395.50
2022-09-28T05:28:05.859Z,395.50
2022-09-28T05:29:06.268Z,395.50
2022-09-28T05:30:06.699Z,395.50
2022-09-28T05:31:07.137Z,395.50
2022-09-28T05:32:07.602Z,395.50
2022-09-28T05:33:08.017Z,395.50
2022-09-28T05:34:08.417Z,419.69
2022-09-28T05:35:08.849Z,411.48
2022-09-28T05:36:09.282Z,395.50
2022-09-28T05:37:09.718Z,411.48
2022-09-28T05:38:10.158Z,403.42
2022-09-28T05:39:10.605Z,403.42
2022-09-28T05:40:11.004Z,411.48
2022-09-28T05:41:11.466Z,411.48
2022-09-28T05:42:11.871Z,411.48
2022-09-28T05:43:12.327Z,403.42
2022-09-28T05:44:12.723Z,411.48
2022-09-28T05:45:13.160Z,403.42
2022-09-28T05:46:13.654Z,403.42
2022-09-28T05:47:14.028Z,395.50
2022-09-28T05:48:14.468Z,411.48
2022-09-28T05:49:14.880Z,411.48
2022-09-28T05:50:15.314Z,419.69
2022-09-28T05:51:15.739Z,411.48
2022-09-28T05:52:16.170Z,411.48
2022-09-28T05:53:16.630Z,395.50
2022-09-28T05:54:17.178Z,403.42
2022-09-28T05:55:17.469Z,411.48
2022-09-28T05:56:17.899Z,403.42
2022-09-28T05:57:18.333Z,411.48
2022-09-28T05:58:18.778Z,403.42
2022-09-28T05:59:19.190Z,395.50
2022-09-28T06:00:19.625Z,395.50
2022-09-28T06:01:20.115Z,411.48
2022-09-28T06:02:20.539Z,403.42
2022-09-28T06:03:20.935Z,395.50
2022-09-28T06:04:21.345Z,403.42
2022-09-28T06:05:21.782Z,403.42
2022-09-28T06:06:22.212Z,403.42
2022-09-28T06:07:22.643Z,387.72
2022-09-28T06:08:23.089Z,395.50
2022-09-28T06:09:25.920Z,411.48
2022-09-28T06:10:23.931Z,403.42
2022-09-28T06:11:24.366Z,395.50
2022-09-28T06:12:24.796Z,419.69
2022-09-28T06:13:25.254Z,395.50
2022-09-28T06:14:25.660Z,403.42
2022-09-28T06:15:26.096Z,395.50
2022-09-28T06:16:26.585Z,387.72
2022-09-28T06:17:26.956Z,411.48
2022-09-28T06:18:27.404Z,411.48
2022-09-28T06:19:27.818Z,403.42
2022-09-28T06:20:28.314Z,403.42
2022-09-28T06:21:28.680Z,395.50
2022-09-28T06:22:29.109Z,403.42
2022-09-28T06:23:29.567Z,403.42
2022-09-28T06:24:29.976Z,419.69
2022-09-28T06:25:30.405Z,395.50
2022-09-28T06:26:30.839Z,411.48
2022-09-28T06:27:31.275Z,411.48
2022-09-28T06:28:31.723Z,411.48
2022-09-28T06:29:32.133Z,411.48
2022-09-28T06:30:32.634Z,419.69
2022-09-28T06:31:33.013Z,411.48
2022-09-28T06:32:33.430Z,403.42
2022-09-28T06:33:33.883Z,403.42
2022-09-28T06:34:34.290Z,411.48
2022-09-28T06:35:34.731Z,411.48
2022-09-28T06:36:35.156Z,403.42
2022-09-28T06:37:35.590Z,395.50
2022-09-28T06:38:36.037Z,411.48
2022-09-28T06:39:36.452Z,395.50
2022-09-28T06:40:36.954Z,403.42
2022-09-28T06:41:37.316Z,411.48
2022-09-28T06:42:37.748Z,403.42
2022-09-28T06:43:38.203Z,395.50
2022-09-28T06:44:38.612Z,411.48
2022-09-28T06:45:39.056Z,411.48
2022-09-28T06:46:39.503Z,403.42
2022-09-28T06:47:39.911Z,403.42
2022-09-28T06:48:40.376Z,387.72
2022-09-28T06:49:40.775Z,411.48
2022-09-28T06:50:41.214Z,411.48
2022-09-28T06:51:41.639Z,403.42
2022-09-28T06:52:42.069Z,403.42
2022-09-28T06:53:42.560Z,395.50
2022-09-28T06:54:42.948Z,411.48
2022-09-28T06:55:43.368Z,411.48
2022-09-28T06:56:43.803Z,411.48
2022-09-28T06:57:44.233Z,411.48
2022-09-28T06:58:44.703Z,395.50
2022-09-28T06:59:45.130Z,411.48
2022-09-28T07:00:45.572Z,403.42
2022-09-28T07:01:46.020Z,403.42
2022-09-28T07:02:46.442Z,387.72
2022-09-28T07:03:46.846Z,403.42
2022-09-28T07:04:47.266Z,403.42
2022-09-28T07:05:47.695Z,403.42
2022-09-28T07:06:48.127Z,411.48
2022-09-28T07:07:48.557Z,403.42
2022-09-28T07:08:59.575Z,395.50
2022-09-28T07:09:52.354Z,395.50
2022-09-28T07:10:49.855Z,403.42
2022-09-28T07:11:50.289Z,395.50
2022-09-28T07:12:50.717Z,403.42
2022-09-28T07:13:51.638Z,403.42
2022-09-28T07:14:51.767Z,395.50
2022-09-28T07:15:52.015Z,403.42
2022-09-28T07:17:11.141Z,395.50
2022-09-28T07:18:01.051Z,411.48
2022-09-28T07:18:53.339Z,403.42
2022-09-28T07:19:53.743Z,395.50
2022-09-28T07:20:54.797Z,403.42
2022-09-28T07:22:04.198Z,403.42
2022-09-28T07:22:55.149Z,395.50
2022-09-28T07:23:55.493Z,403.42
2022-09-28T07:24:55.907Z,395.50
2022-09-28T07:25:56.594Z,395.50
2022-09-28T07:26:56.770Z,403.42
2022-09-28T07:27:57.204Z,403.42
2022-09-28T07:28:57.659Z,411.48
2022-09-28T07:29:58.068Z,403.42
2022-09-28T07:30:58.548Z,419.69
2022-09-28T07:31:58.930Z,411.48
2022-09-28T07:32:59.363Z,403.42
2022-09-28T07:33:59.813Z,411.48
2022-09-28T07:35:00.227Z,403.42
2022-09-28T07:36:00.661Z,428.05
2022-09-28T07:37:01.095Z,419.69
2022-09-28T07:38:01.529Z,419.69
2022-09-28T07:39:01.980Z,411.48
2022-09-28T07:40:02.391Z,419.69
2022-09-28T07:41:02.862Z,403.42
2022-09-28T07:42:03.276Z,419.69
2022-09-28T07:43:03.704Z,403.42
2022-09-28T07:44:04.141Z,403.42
2022-09-28T07:45:04.563Z,411.48
2022-09-28T07:46:05.017Z,411.48
2022-09-28T07:47:05.420Z,419.69
2022-09-28T07:48:05.917Z,411.48
2022-09-28T07:49:09.736Z,403.42
2022-09-28T07:50:06.725Z,411.48
2022-09-28T07:51:07.163Z,395.50
2022-09-28T07:52:07.581Z,411.48
2022-09-28T07:53:08.017Z,419.69
2022-09-28T07:54:08.468Z,419.69
2022-09-28T07:55:08.908Z,403.42
2022-09-28T07:56:09.310Z,411.48
2022-09-28T07:57:09.759Z,403.42
2022-09-28T07:58:10.179Z,411.48
2022-09-28T07:59:10.720Z,411.48
2022-09-28T08:00:11.077Z,428.05
2022-09-28T08:01:11.534Z,403.42
2022-09-28T08:02:11.971Z,403.42
2022-09-28T08:03:12.341Z,403.42
2022-09-28T08:04:12.799Z,419.69
2022-09-28T08:05:13.215Z,411.48
2022-09-28T08:06:13.639Z,411.48
2022-09-28T08:07:14.074Z,419.69
2022-09-28T08:08:14.506Z,419.69
2022-09-28T08:09:14.967Z,411.48
2022-09-28T08:10:15.374Z,419.69
2022-09-28T08:11:15.811Z,411.48
2022-09-28T08:12:16.269Z,411.48
2022-09-28T08:13:16.685Z,428.05
2022-09-28T08:14:17.246Z,419.69
2022-09-28T08:15:17.557Z,411.48
2022-09-28T08:16:18.064Z,403.42
2022-09-28T08:17:18.414Z,411.48
2022-09-28T08:18:18.847Z,411.48
2022-09-28T08:19:19.498Z,428.05
2022-09-28T08:20:19.718Z,411.48
2022-09-28T08:21:20.154Z,419.69
2022-09-28T08:22:20.590Z,411.48
2022-09-28T08:23:21.026Z,419.69
2022-09-28T08:24:21.480Z,428.05
2022-09-28T08:25:21.900Z,411.48
2022-09-28T08:26:22.330Z,419.69
2022-09-28T08:27:22.766Z,411.48
2022-09-28T08:28:23.205Z,428.05
2022-09-28T08:29:23.667Z,436.57
2022-09-28T08:30:24.216Z,436.57
2022-09-28T08:31:24.509Z,436.57
2022-09-28T08:32:24.945Z,428.05
2022-09-28T08:33:25.383Z,428.05
2022-09-28T08:34:25.834Z,428.05
2022-09-28T08:35:26.254Z,419.69
2022-09-28T08:36:26.692Z,428.05
2022-09-28T08:37:27.123Z,428.05
2022-09-28T08:38:27.555Z,428.05
2022-09-28T08:39:28.021Z,411.48
2022-09-28T08:40:28.473Z,411.48
2022-09-28T08:41:28.870Z,428.05
2022-09-28T08:42:29.298Z,419.69
2022-09-28T08:43:29.731Z,419.69
2022-09-28T08:44:30.186Z,419.69
2022-09-28T08:45:30.602Z,419.69
2022-09-28T08:46:31.106Z,419.69
2022-09-28T08:47:31.472Z,428.05
2022-09-28T08:48:31.908Z,428.05
2022-09-28T08:49:32.630Z,428.05
2022-09-28T08:50:32.782Z,428.05
2022-09-28T08:51:33.211Z,419.69
2022-09-28T08:52:33.646Z,419.69
2022-09-28T08:53:34.081Z,419.69
2022-09-28T08:54:34.541Z,436.57
2022-09-28T08:55:34.952Z,419.69
2022-09-28T08:56:35.386Z,436.57
2022-09-28T08:57:35.822Z,419.69
2022-09-28T08:58:36.257Z,428.05
2022-09-28T08:59:36.721Z,436.57
2022-09-28T09:00:37.136Z,428.05
2022-09-28T09:01:37.587Z,436.57
2022-09-28T09:02:38.052Z,428.05
2022-09-28T09:03:38.439Z,428.05
2022-09-28T09:04:38.892Z,428.05
2022-09-28T09:05:39.307Z,419.69
2022-09-28T09:06:39.742Z,428.05
2022-09-28T09:07:40.180Z,428.05
2022-09-28T09:08:40.617Z,436.57
2022-09-28T09:09:41.079Z,428.05
2022-09-28T09:10:41.490Z,419.69
2022-09-28T09:11:41.925Z,436.57
2022-09-28T09:12:42.401Z,428.05
2022-09-28T09:13:42.799Z,436.57
2022-09-28T09:14:43.278Z,428.05
2022-09-28T09:15:43.675Z,436.57
2022-09-28T09:16:44.158Z,428.05
2022-09-28T09:17:44.543Z,436.57
2022-09-28T09:18:44.997Z,436.57
2022-09-28T09:19:45.425Z,428.05
2022-09-28T09:20:45.860Z,419.69
2022-09-28T09:21:46.293Z,428.05
2022-09-28T09:22:46.723Z,436.57
2022-09-28T09:23:47.164Z,428.05
2022-09-28T09:24:47.595Z,419.69
2022-09-28T09:25:48.058Z,419.69
2022-09-28T09:26:48.495Z,436.57
2022-09-28T09:27:48.904Z,428.05
2022-09-28T09:28:49.346Z,419.69
2022-09-28T09:29:49.779Z,428.05
2022-09-28T09:30:50.301Z,428.05
2022-09-28T09:31:50.655Z,428.05
2022-09-28T09:32:51.085Z,428.05
2022-09-28T09:33:51.535Z,419.69
2022-09-28T09:34:51.968Z,419.69
2022-09-28T09:35:52.419Z,428.05
2022-09-28T09:36:52.833Z,436.57
2022-09-28T09:37:56.532Z,419.69
2022-09-28T09:38:53.707Z,428.05
2022-09-28T09:39:54.143Z,428.05
2022-09-28T09:40:54.679Z,428.05
2022-09-28T09:41:55.016Z,419.69
2022-09-28T09:42:55.470Z,419.69
2022-09-28T09:43:55.891Z,428.05
2022-09-28T09:44:56.324Z,419.69
2022-09-28T09:45:56.844Z,419.69
2022-09-28T09:46:57.202Z,428.05
2022-09-28T09:47:57.636Z,419.69
2022-09-28T09:48:58.072Z,419.69
2022-09-28T09:49:58.507Z,419.69
2022-09-28T09:50:58.982Z,419.69
2022-09-28T09:51:59.388Z,419.69
2022-09-28T09:52:59.815Z,419.69
2022-09-28T09:54:00.282Z,428.05
2022-09-28T09:55:00.698Z,419.69
2022-09-28T09:56:01.146Z,436.57
2022-09-28T09:57:01.568Z,428.05
2022-09-28T09:58:02.019Z,428.05
2022-09-28T09:59:02.439Z,436.57
2022-09-28T10:00:02.878Z,445.23
2022-09-28T10:01:03.398Z,454.06
2022-09-28T10:02:03.807Z,428.05
2022-09-28T10:03:04.202Z,428.05
2022-09-28T10:04:04.642Z,445.23
2022-09-28T10:05:05.082Z,436.57
2022-09-28T10:06:05.551Z,436.57
2022-09-28T10:07:05.967Z,445.23
2022-09-28T10:08:06.426Z,445.23
2022-09-28T10:09:06.852Z,436.57
2022-09-28T10:10:07.376Z,428.05
2022-09-28T10:11:07.762Z,419.69
2022-09-28T10:12:08.180Z,436.57
2022-09-28T10:13:08.620Z,428.05
2022-09-28T10:14:09.063Z,428.05
2022-09-28T10:15:09.507Z,419.69
2022-09-28T10:16:09.981Z,428.05
2022-09-28T10:17:10.417Z,419.69
2022-09-28T10:18:10.826Z,428.05
2022-09-28T10:19:11.267Z,428.05
2022-09-28T10:20:11.704Z,428.05
2022-09-28T10:21:12.164Z,428.05
2022-09-28T10:22:12.589Z,428.05
2022-09-28T10:23:13.019Z,419.69
2022-09-28T10:24:13.458Z,428.05
2022-09-28T10:25:13.908Z,436.57
2022-09-28T10:26:14.356Z,428.05
2022-09-28T10:27:14.793Z,436.57
2022-09-28T10:28:15.215Z,428.05
2022-09-28T10:29:15.688Z,445.23
2022-09-28T10:30:16.099Z,428.05
2022-09-28T10:31:16.564Z,445.23
2022-09-28T10:32:16.979Z,454.06
2022-09-28T10:33:17.423Z,454.06
2022-09-28T10:34:17.983Z,445.23
2022-09-28T10:35:18.325Z,436.57
2022-09-28T10:36:18.788Z,436.57
2022-09-28T10:37:19.202Z,436.57
2022-09-28T10:38:19.672Z,463.04
2022-09-28T10:39:20.095Z,419.69
2022-09-28T10:40:20.595Z,445.23
2022-09-28T10:41:21.027Z,436.57
2022-09-28T10:42:21.429Z,428.05
2022-09-28T10:43:21.870Z,436.57
2022-09-28T10:44:22.316Z,428.05
2022-09-28T10:45:22.756Z,445.23
2022-09-28T10:46:23.269Z,445.23
2022-09-28T10:47:23.642Z,436.57
2022-09-28T10:48:24.089Z,428.05
2022-09-28T10:49:24.526Z,436.57
2022-09-28T10:50:24.973Z,428.05
2022-09-28T10:51:25.432Z,436.57
2022-09-28T10:52:25.861Z,454.06
2022-09-28T10:53:26.303Z,445.23
2022-09-28T10:54:26.755Z,454.06
2022-09-28T10:55:27.210Z,463.04
2022-09-28T10:56:27.666Z,445.23
2022-09-28T10:57:28.089Z,436.57
2022-09-28T10:58:28.540Z,428.05
2022-09-28T10:59:28.980Z,419.69
2022-09-28T11:00:29.423Z,428.05
2022-09-28T11:01:29.923Z,419.69
2022-09-28T11:02:34.764Z,419.69
2022-09-28T11:03:30.750Z,436.57
2022-09-28T11:04:31.192Z,419.69
2022-09-28T11:05:31.635Z,428.05
2022-09-28T11:06:32.091Z,428.05
2022-09-28T11:07:32.523Z,428.05
2022-09-28T11:08:32.980Z,428.05
2022-09-28T11:09:33.396Z,419.69
2022-09-28T11:10:33.833Z,411.48
2022-09-28T11:11:34.288Z,419.69
2022-09-28T11:12:34.709Z,428.05
2022-09-28T11:13:35.145Z,411.48
2022-09-28T11:14:39.737Z,428.05
2022-09-28T11:15:36.023Z,411.48
2022-09-28T11:16:36.547Z,419.69
2022-09-28T11:17:36.895Z,411.48
2022-09-28T11:18:37.334Z,411.48
2022-09-28T11:19:37.772Z,411.48
2022-09-28T11:20:38.293Z,419.69
2022-09-28T11:21:38.667Z,428.05
2022-09-28T11:22:39.085Z,411.48
2022-09-28T11:23:39.538Z,419.69
2022-09-28T11:24:39.972Z,419.69
2022-09-28T11:25:40.398Z,411.48
2022-09-28T11:26:40.856Z,411.48
2022-09-28T11:27:41.274Z,419.69
2022-09-28T11:28:41.722Z,411.48
2022-09-28T11:29:42.150Z,411.48
2022-09-28T11:30:42.681Z,411.48
2022-09-28T11:31:43.043Z,428.05
2022-09-28T11:32:43.468Z,411.48
2022-09-28T11:33:43.902Z,428.05
2022-09-28T11:34:58.592Z,411.48
2022-09-28T11:35:44.782Z,428.05
2022-09-28T11:36:45.237Z,411.48
2022-09-28T11:37:45.652Z,403.42
2022-09-28T11:38:46.092Z,428.05
2022-09-28T11:39:46.529Z,419.69
2022-09-28T11:40:47.017Z,411.48
2022-09-28T11:41:47.444Z,403.42
2022-09-28T11:42:47.845Z,411.48
2022-09-28T11:43:48.279Z,428.05
2022-09-28T11:44:48.723Z,411.48
2022-09-28T11:45:49.211Z,411.48
2022-09-28T11:46:49.618Z,419.69
2022-09-28T11:47:50.035Z,428.05
2022-09-28T11:48:50.479Z,436.57
2022-09-28T11:49:50.941Z,419.69
2022-09-28T11:50:51.358Z,411.48
2022-09-28T11:51:51.814Z,428.05
2022-09-28T11:52:52.230Z,428.05
2022-09-28T11:53:52.670Z,419.69
2022-09-28T11:54:53.112Z,411.48
2022-09-28T11:55:53.548Z,428.05
2022-09-28T11:56:54.008Z,419.69
2022-09-28T11:57:54.425Z,411.48
2022-09-28T11:58:54.863Z,419.69
2022-09-28T11:59:55.305Z,411.48
2022-09-28T12:00:55.749Z,419.69
2022-09-28T12:01:56.212Z,411.48
2022-09-28T12:02:56.682Z,428.05
2022-09-28T12:03:57.071Z,454.06
2022-09-28T12:04:57.503Z,463.04
2022-09-28T12:05:57.961Z,463.04
2022-09-28T12:06:58.410Z,463.04
2022-09-28T12:07:58.829Z,454.06
2022-09-28T12:08:59.269Z,454.06
2022-09-28T12:09:59.706Z,428.05
2022-09-28T12:11:00.159Z,445.23
2022-09-28T12:12:00.614Z,436.57
2022-09-28T12:13:01.039Z,454.06
2022-09-28T12:14:01.480Z,436.57
2022-09-28T12:15:01.928Z,436.57
2022-09-28T12:16:38.797Z,428.05
2022-09-28T12:17:07.918Z,445.23
2022-09-28T12:18:03.327Z,445.23
2022-09-28T12:19:03.709Z,436.57
2022-09-28T12:20:04.380Z,445.23
2022-09-28T12:21:05.330Z,428.05
2022-09-28T12:22:05.099Z,428.05
2022-09-28T12:23:05.499Z,436.57
2022-09-28T12:24:05.941Z,428.05
2022-09-28T12:25:06.384Z,428.05
2022-09-28T12:26:06.839Z,428.05
2022-09-28T12:27:07.296Z,419.69
2022-09-28T12:28:07.725Z,436.57
2022-09-28T12:29:08.169Z,428.05
2022-09-28T12:30:08.615Z,436.57
2022-09-28T12:31:09.094Z,419.69
2022-09-28T12:32:09.526Z,419.69
2022-09-28T12:33:09.950Z,428.05
2022-09-28T12:34:10.401Z,436.57